This is the latest recevied weather packets stored in our database for station/object GOLDWX. If no packets are shown the sender has not sent any weather packets the latest 10 day(s).
| Time | Temp. | Humidity | Pressure | Rain* | Wind** | Luminosity | Snow |
|---|---|---|---|---|---|---|---|
| 1777944326 | 13.89° C | 42% | 1008.6 hPa | 0 mm | - | - | - |
| 1777944025 | 13.89° C | 41% | 1008.6 hPa | 0 mm | - | - | - |
| 1777943423 | 14.44° C | 39% | 1008.6 hPa | 0 mm | - | - | - |
| 1777943122 | 15° C | 37% | 1008.4 hPa | 0 mm | - | - | - |
| 1777942520 | 15° C | 36% | 1008.5 hPa | 0 mm | - | - | - |
| 1777942219 | 15.56° C | 35% | 1008.6 hPa | 0 mm | - | - | - |
| 1777941619 | 15.56° C | 32% | 1008.6 hPa | 0 mm | - | - | - |
| 1777941317 | 15.56° C | 33% | 1008.5 hPa | 0 mm | - | - | - |
| 1777940715 | 15.56° C | 32% | 1008.5 hPa | 0 mm | - | - | - |
| 1777940414 | 15° C | 34% | 1008.3 hPa | 0 mm | - | - | - |
| 1777939812 | 14.44° C | 34% | 1008.3 hPa | 0 mm | - | - | - |
| 1777939512 | 14.44° C | 36% | 1008.3 hPa | 0 mm | - | - | - |
| 1777938910 | 13.89° C | 35% | 1008.3 hPa | 0 mm | - | - | - |
| 1777938609 | 14.44° C | 36% | 1008.2 hPa | 0 mm | - | - | - |
| 1777938309 | 15° C | 35% | 1008.2 hPa | 0 mm | - | - | - |
| 1777938009 | 15° C | 34% | 1008.3 hPa | 0 mm | - | - | - |
| 1777937707 | 15.56° C | 34% | 1008.4 hPa | 0 mm | - | - | - |
| 1777937105 | 15.56° C | 34% | 1008.4 hPa | 0 mm | - | - | - |
| 1777936806 | 15.56° C | 34% | 1008.3 hPa | 0 mm | - | - | - |
| 1777936203 | 16.11° C | 32% | 1008.3 hPa | 0 mm | - | - | - |
| 1777936118 | 16.11° C | 32% | 1008.5 hPa | 0 mm | - | - | - |
| 1777934772 | 17.22° C | 29% | 1008.3 hPa | 0 mm | - | - | - |
| 1777934472 | 17.22° C | 28% | 1008.2 hPa | 0 mm | - | - | - |
| 1777933869 | 18.33° C | 24% | 1008.3 hPa | 0 mm | - | - | - |
| 1777933568 | 18.89° C | 24% | 1008.1 hPa | 0 mm | - | - | - |
* Rain since midnight (hover to see other rain measurements)
** Current wind speed in m/s (hover to see current wind gust speed)